PWSweather.com
Personal Weather Stations
Station Observations
CANDIOTINO
Barrio Candioti Norte, Santa FeAR 3000

Barrio Candioti NorteSanta FeAR 3000

Lat: -31.632778, Lon: -60.695556

Elevation: 69

Station Type: WH-1081

http://www.eltiempoensantafe.com.ar

High Low Average
Temperature 86.2°F30.1°C 61.5°F16.4°C 73.0°F22.8°C
Dew Point 54.4°F12.4°C 47.3°F8.5°C 51.2°F10.7°C
Winds 9.8 mph 15.8 kmh 0.7 mph 1.1 kmh 4.0 mph ENE6.4 kmh ENE
Wind Gusts 15.2 mph24.5 kmh 6.0 mph9.7 kmh 11.0 mph17.7 kmh
Humidity 70% 26% 48%
Pressure 30.01 in1016.3 mb 29.82 in1009.8 mb -
Precipitation 0.00 in0.0 mm - -
Hour Temp Dew Point Humidity Winds Wind Gusts Pressure Precip Precip Rate Daily Precip Total
12:00 AM 70.2°F21.2°C 51.7°F10.9°C 52% 3.8 mph E6.1 kmh E 7.6 mph12.2 kmh 29.99 in1015.6 mb 0.00 in0.0 mm 0.00 in0.0 mm 0.00 in0.0 mm
12:15 AM 70.0°F21.1°C 52.1°F11.2°C 53% 1.6 mph E2.6 kmh E 6.9 mph11.1 kmh 30.00 in1015.9 mb 0.00 in0.0 mm 0.00 in0.0 mm 0.00 in0.0 mm
12:30 AM 69.8°F21.0°C 52.4°F11.3°C 54% 2.2 mph ENE3.5 kmh ENE 9.2 mph14.8 kmh 30.00 in1015.9 mb 0.00 in0.0 mm 0.00 in0.0 mm 0.00 in0.0 mm
12:45 AM 69.8°F21.0°C 52.4°F11.3°C 54% 3.8 mph E6.1 kmh E 9.8 mph15.8 kmh 30.00 in1015.9 mb 0.00 in0.0 mm 0.00 in0.0 mm 0.00 in0.0 mm
01:00 AM 69.6°F20.9°C 53.3°F11.8°C 56% 3.1 mph E5.0 kmh E 9.2 mph14.8 kmh 30.00 in1015.9 mb 0.00 in0.0 mm 0.00 in0.0 mm 0.00 in0.0 mm
01:15 AM 69.6°F20.9°C 53.3°F11.8°C 56% 3.1 mph ESE5.0 kmh ESE 10.7 mph17.2 kmh 30.00 in1015.9 mb 0.00 in0.0 mm 0.00 in0.0 mm 0.00 in0.0 mm
01:30 AM 68.5°F20.3°C 52.7°F11.5°C 57% 3.8 mph ESE6.1 kmh ESE 7.6 mph12.2 kmh 30.00 in1015.9 mb 0.00 in0.0 mm 0.00 in0.0 mm 0.00 in0.0 mm
01:45 AM 67.1°F19.5°C 52.8°F11.6°C 60% 1.6 mph E2.6 kmh E 8.3 mph13.4 kmh 30.00 in1015.9 mb 0.00 in0.0 mm 0.00 in0.0 mm 0.00 in0.0 mm
02:00 AM 66.6°F19.2°C 52.7°F11.5°C 61% 4.5 mph ESE7.2 kmh ESE 9.2 mph14.8 kmh 30.00 in1015.9 mb 0.00 in0.0 mm 0.00 in0.0 mm 0.00 in0.0 mm
02:15 AM 66.7°F19.3°C 52.4°F11.3°C 60% 2.2 mph E3.5 kmh E 9.2 mph14.8 kmh 30.00 in1015.9 mb 0.00 in0.0 mm 0.00 in0.0 mm 0.00 in0.0 mm
02:30 AM 66.4°F19.1°C 52.5°F11.4°C 61% 1.6 mph E2.6 kmh E 8.3 mph13.4 kmh 29.99 in1015.6 mb 0.00 in0.0 mm 0.00 in0.0 mm 0.00 in0.0 mm
02:45 AM 65.8°F18.8°C 52.5°F11.4°C 62% 2.2 mph E3.5 kmh E 6.9 mph11.1 kmh 30.00 in1015.9 mb 0.00 in0.0 mm 0.00 in0.0 mm 0.00 in0.0 mm
03:00 AM 65.3°F18.5°C 52.4°F11.3°C 63% 3.1 mph E5.0 kmh E 9.8 mph15.8 kmh 29.98 in1015.2 mb 0.00 in0.0 mm 0.00 in0.0 mm 0.00 in0.0 mm
03:15 AM 64.8°F18.2°C 52.3°F11.3°C 64% 2.2 mph NE3.5 kmh NE 11.4 mph18.3 kmh 29.98 in1015.2 mb 0.00 in0.0 mm 0.00 in0.0 mm 0.00 in0.0 mm
03:30 AM 64.2°F17.9°C 51.8°F11.0°C 64% 2.2 mph E3.5 kmh E 6.9 mph11.1 kmh 29.98 in1015.2 mb 0.00 in0.0 mm 0.00 in0.0 mm 0.00 in0.0 mm
03:45 AM 63.9°F17.7°C 51.5°F10.8°C 64% 1.6 mph E2.6 kmh E 6.0 mph9.7 kmh 29.98 in1015.2 mb 0.00 in0.0 mm 0.00 in0.0 mm 0.00 in0.0 mm
04:00 AM 63.7°F17.6°C 51.3°F10.7°C 64% 0.7 mph E1.1 kmh E 6.9 mph11.1 kmh 29.98 in1015.2 mb 0.00 in0.0 mm 0.00 in0.0 mm 0.00 in0.0 mm
04:15 AM 63.5°F17.5°C 51.1°F10.6°C 64% 3.1 mph ENE5.0 kmh ENE 8.3 mph13.4 kmh 29.98 in1015.2 mb 0.00 in0.0 mm 0.00 in0.0 mm 0.00 in0.0 mm
04:30 AM 63.3°F17.4°C 51.0°F10.6°C 64% 3.1 mph E5.0 kmh E 8.3 mph13.4 kmh 29.97 in1014.9 mb 0.00 in0.0 mm 0.00 in0.0 mm 0.00 in0.0 mm
04:45 AM 63.1°F17.3°C 50.8°F10.4°C 64% 3.8 mph E6.1 kmh E 8.3 mph13.4 kmh 29.98 in1015.2 mb 0.00 in0.0 mm 0.00 in0.0 mm 0.00 in0.0 mm
05:00 AM 62.8°F17.1°C 50.4°F10.2°C 64% 2.2 mph E3.5 kmh E 9.8 mph15.8 kmh 29.97 in1014.9 mb 0.00 in0.0 mm 0.00 in0.0 mm 0.00 in0.0 mm
05:15 AM 62.6°F17.0°C 50.7°F10.4°C 65% 4.5 mph E7.2 kmh E 9.8 mph15.8 kmh 29.98 in1015.2 mb 0.00 in0.0 mm 0.00 in0.0 mm 0.00 in0.0 mm
05:30 AM 62.2°F16.8°C 50.8°F10.4°C 66% 3.8 mph E6.1 kmh E 11.4 mph18.3 kmh 29.98 in1015.2 mb 0.00 in0.0 mm 0.00 in0.0 mm 0.00 in0.0 mm
05:45 AM 62.1°F16.7°C 51.4°F10.8°C 68% 2.2 mph E3.5 kmh E 7.6 mph12.2 kmh 29.98 in1015.2 mb 0.00 in0.0 mm 0.00 in0.0 mm 0.00 in0.0 mm
06:00 AM 61.9°F16.6°C 51.2°F10.7°C 68% 3.8 mph E6.1 kmh E 9.2 mph14.8 kmh 29.98 in1015.2 mb 0.00 in0.0 mm 0.00 in0.0 mm 0.00 in0.0 mm
06:15 AM 61.5°F16.4°C 51.3°F10.7°C 69% 3.1 mph ESE5.0 kmh ESE 9.8 mph15.8 kmh 29.99 in1015.6 mb 0.00 in0.0 mm 0.00 in0.0 mm 0.00 in0.0 mm
06:30 AM 61.7°F16.5°C 51.8°F11.0°C 70% 1.6 mph E2.6 kmh E 6.9 mph11.1 kmh 29.98 in1015.2 mb 0.00 in0.0 mm 0.00 in0.0 mm 0.00 in0.0 mm
06:45 AM 61.9°F16.6°C 51.6°F10.9°C 69% 6.0 mph ENE9.7 kmh ENE 9.2 mph14.8 kmh 29.99 in1015.6 mb 0.00 in0.0 mm 0.00 in0.0 mm 0.00 in0.0 mm
07:00 AM 62.4°F16.9°C 51.3°F10.7°C 67% 3.8 mph ENE6.1 kmh ENE 9.8 mph15.8 kmh 30.00 in1015.9 mb 0.00 in0.0 mm 0.00 in0.0 mm 0.00 in0.0 mm
07:15 AM 63.0°F17.2°C 50.6°F10.3°C 64% 3.1 mph E5.0 kmh E 8.3 mph13.4 kmh 30.00 in1015.9 mb 0.00 in0.0 mm 0.00 in0.0 mm 0.00 in0.0 mm
07:30 AM 63.1°F17.3°C 49.9°F9.9°C 62% 1.6 mph ENE2.6 kmh ENE 11.4 mph18.3 kmh 29.99 in1015.6 mb 0.00 in0.0 mm 0.00 in0.0 mm 0.00 in0.0 mm
07:45 AM 64.0°F17.8°C 50.3°F10.2°C 61% 3.1 mph E5.0 kmh E 8.3 mph13.4 kmh 30.00 in1015.9 mb 0.00 in0.0 mm 0.00 in0.0 mm 0.00 in0.0 mm
08:00 AM 65.5°F18.6°C 50.3°F10.2°C 58% 4.5 mph ENE7.2 kmh ENE 7.6 mph12.2 kmh 29.99 in1015.6 mb 0.00 in0.0 mm 0.00 in0.0 mm 0.00 in0.0 mm
08:15 AM 65.7°F18.7°C 49.6°F9.8°C 56% 4.5 mph ENE7.2 kmh ENE 11.4 mph18.3 kmh 30.00 in1015.9 mb 0.00 in0.0 mm 0.00 in0.0 mm 0.00 in0.0 mm
08:30 AM 66.9°F19.4°C 49.8°F9.9°C 54% 4.5 mph NE7.2 kmh NE 15.2 mph24.5 kmh 30.00 in1015.9 mb 0.00 in0.0 mm 0.00 in0.0 mm 0.00 in0.0 mm
08:45 AM 68.4°F20.2°C 49.6°F9.8°C 51% 5.4 mph ENE8.7 kmh ENE 9.8 mph15.8 kmh 30.00 in1015.9 mb 0.00 in0.0 mm 0.00 in0.0 mm 0.00 in0.0 mm
09:00 AM 68.4°F20.2°C 50.6°F10.3°C 53% 6.0 mph NE9.7 kmh NE 13.0 mph20.9 kmh 30.01 in1016.3 mb 0.00 in0.0 mm 0.00 in0.0 mm 0.00 in0.0 mm
09:15 AM 69.4°F20.8°C 50.5°F10.3°C 51% 4.5 mph NNE7.2 kmh NNE 13.0 mph20.9 kmh 30.00 in1015.9 mb 0.00 in0.0 mm 0.00 in0.0 mm 0.00 in0.0 mm
09:30 AM 69.8°F21.0°C 49.8°F9.9°C 49% 3.8 mph NNE6.1 kmh NNE 11.4 mph18.3 kmh 30.00 in1015.9 mb 0.00 in0.0 mm 0.00 in0.0 mm 0.00 in0.0 mm
09:45 AM 71.1°F21.7°C 49.8°F9.9°C 47% 5.4 mph NE8.7 kmh NE 13.6 mph21.9 kmh 30.00 in1015.9 mb 0.00 in0.0 mm 0.00 in0.0 mm 0.00 in0.0 mm
10:00 AM 72.0°F22.2°C 49.5°F9.7°C 45% 8.3 mph NNE13.4 kmh NNE 11.4 mph18.3 kmh 30.00 in1015.9 mb 0.00 in0.0 mm 0.00 in0.0 mm 0.00 in0.0 mm
10:15 AM 72.5°F22.5°C 50.0°F10.0°C 45% 7.6 mph NE12.2 kmh NE 14.5 mph23.3 kmh 30.00 in1015.9 mb 0.00 in0.0 mm 0.00 in0.0 mm 0.00 in0.0 mm
10:30 AM 74.1°F23.4°C 51.5°F10.8°C 45% 4.5 mph N7.2 kmh N 11.4 mph18.3 kmh 29.99 in1015.6 mb 0.00 in0.0 mm 0.00 in0.0 mm 0.00 in0.0 mm
10:45 AM 75.4°F24.1°C 50.7°F10.4°C 42% 5.4 mph N8.7 kmh N 14.5 mph23.3 kmh 29.98 in1015.2 mb 0.00 in0.0 mm 0.00 in0.0 mm 0.00 in0.0 mm
11:00 AM 76.5°F24.7°C 49.7°F9.8°C 39% 5.4 mph NE8.7 kmh NE 13.0 mph20.9 kmh 29.98 in1015.2 mb 0.00 in0.0 mm 0.00 in0.0 mm 0.00 in0.0 mm
11:15 AM 77.2°F25.1°C 49.6°F9.8°C 38% 6.9 mph NE11.1 kmh NE 13.6 mph21.9 kmh 29.98 in1015.2 mb 0.00 in0.0 mm 0.00 in0.0 mm 0.00 in0.0 mm
11:30 AM 77.5°F25.3°C 50.0°F10.0°C 38% 4.5 mph NNE7.2 kmh NNE 14.5 mph23.3 kmh 29.98 in1015.2 mb 0.00 in0.0 mm 0.00 in0.0 mm 0.00 in0.0 mm
11:45 AM 79.0°F26.1°C 50.5°F10.3°C 37% 5.4 mph NNE8.7 kmh NNE 12.1 mph19.5 kmh 29.97 in1014.9 mb 0.00 in0.0 mm 0.00 in0.0 mm 0.00 in0.0 mm
12:00 PM 79.7°F26.5°C 51.9°F11.1°C 38% 3.8 mph N6.1 kmh N 15.2 mph24.5 kmh 29.96 in1014.6 mb 0.00 in0.0 mm 0.00 in0.0 mm 0.00 in0.0 mm
12:15 PM 80.4°F26.9°C 51.8°F11.0°C 37% 3.1 mph NE5.0 kmh NE 11.4 mph18.3 kmh 29.96 in1014.6 mb 0.00 in0.0 mm 0.00 in0.0 mm 0.00 in0.0 mm
12:30 PM 79.9°F26.6°C 51.3°F10.7°C 37% 6.9 mph NE11.1 kmh NE 13.0 mph20.9 kmh 29.96 in1014.6 mb 0.00 in0.0 mm 0.00 in0.0 mm 0.00 in0.0 mm
12:45 PM 81.0°F27.2°C 52.3°F11.3°C 37% 6.0 mph N9.7 kmh N 14.5 mph23.3 kmh 29.95 in1014.2 mb 0.00 in0.0 mm 0.00 in0.0 mm 0.00 in0.0 mm
01:00 PM 81.7°F27.6°C 51.4°F10.8°C 35% 5.4 mph NE8.7 kmh NE 12.1 mph19.5 kmh 29.94 in1013.9 mb 0.00 in0.0 mm 0.00 in0.0 mm 0.00 in0.0 mm
01:15 PM 81.7°F27.6°C 51.4°F10.8°C 35% 7.6 mph N12.2 kmh N 13.0 mph20.9 kmh 29.94 in1013.9 mb 0.00 in0.0 mm 0.00 in0.0 mm 0.00 in0.0 mm
01:30 PM 82.6°F28.1°C 53.0°F11.7°C 36% 6.9 mph NNE11.1 kmh NNE 14.5 mph23.3 kmh 29.94 in1013.9 mb 0.00 in0.0 mm 0.00 in0.0 mm 0.00 in0.0 mm
01:45 PM 83.3°F28.5°C 53.6°F12.0°C 36% 9.8 mph NNE15.8 kmh NNE 14.5 mph23.3 kmh 29.92 in1013.2 mb 0.00 in0.0 mm 0.00 in0.0 mm 0.00 in0.0 mm
02:00 PM 84.4°F29.1°C 53.8°F12.1°C 35% 6.9 mph NE11.1 kmh NE 13.0 mph20.9 kmh 29.91 in1012.9 mb 0.00 in0.0 mm 0.00 in0.0 mm 0.00 in0.0 mm
02:15 PM 84.0°F28.9°C 54.2°F12.3°C 36% 7.6 mph NNE12.2 kmh NNE 13.0 mph20.9 kmh 29.90 in1012.5 mb 0.00 in0.0 mm 0.00 in0.0 mm 0.00 in0.0 mm
02:30 PM 84.0°F28.9°C 54.2°F12.3°C 36% 4.5 mph NNE7.2 kmh NNE 14.5 mph23.3 kmh 29.89 in1012.2 mb 0.00 in0.0 mm 0.00 in0.0 mm 0.00 in0.0 mm
02:45 PM 85.1°F29.5°C 54.4°F12.4°C 35% 4.5 mph NE7.2 kmh NE 12.1 mph19.5 kmh 29.89 in1012.2 mb 0.00 in0.0 mm 0.00 in0.0 mm 0.00 in0.0 mm
03:00 PM 85.6°F29.8°C 53.3°F11.8°C 33% 4.5 mph NE7.2 kmh NE 11.4 mph18.3 kmh 29.88 in1011.9 mb 0.00 in0.0 mm 0.00 in0.0 mm 0.00 in0.0 mm
03:15 PM 86.0°F30.0°C 51.0°F10.6°C 30% 3.8 mph NE6.1 kmh NE 12.1 mph19.5 kmh 29.87 in1011.5 mb 0.00 in0.0 mm 0.00 in0.0 mm 0.00 in0.0 mm
03:30 PM 85.6°F29.8°C 50.7°F10.4°C 30% 3.8 mph NE6.1 kmh NE 11.4 mph18.3 kmh 29.86 in1011.2 mb 0.00 in0.0 mm 0.00 in0.0 mm 0.00 in0.0 mm
03:45 PM 86.0°F30.0°C 51.0°F10.6°C 30% 5.4 mph NNE8.7 kmh NNE 12.1 mph19.5 kmh 29.86 in1011.2 mb 0.00 in0.0 mm 0.00 in0.0 mm 0.00 in0.0 mm
04:00 PM 85.8°F29.9°C 49.9°F9.9°C 29% 6.0 mph N9.7 kmh N 13.6 mph21.9 kmh 29.85 in1010.8 mb 0.00 in0.0 mm 0.00 in0.0 mm 0.00 in0.0 mm
04:15 PM 86.2°F30.1°C 47.3°F8.5°C 26% 5.4 mph NE8.7 kmh NE 12.1 mph19.5 kmh 29.84 in1010.5 mb 0.00 in0.0 mm 0.00 in0.0 mm 0.00 in0.0 mm
04:30 PM 86.2°F30.1°C 48.3°F9.1°C 27% 4.5 mph NE7.2 kmh NE 12.1 mph19.5 kmh 29.84 in1010.5 mb 0.00 in0.0 mm 0.00 in0.0 mm 0.00 in0.0 mm
04:45 PM 86.0°F30.0°C 49.2°F9.6°C 28% 5.4 mph ENE8.7 kmh ENE 11.4 mph18.3 kmh 29.83 in1010.2 mb 0.00 in0.0 mm 0.00 in0.0 mm 0.00 in0.0 mm
05:00 PM 85.6°F29.8°C 50.7°F10.4°C 30% 4.5 mph ENE7.2 kmh ENE 11.4 mph18.3 kmh 29.83 in1010.2 mb 0.00 in0.0 mm 0.00 in0.0 mm 0.00 in0.0 mm
05:15 PM 85.6°F29.8°C 50.7°F10.4°C 30% 5.4 mph NE8.7 kmh NE 13.6 mph21.9 kmh 29.83 in1010.2 mb 0.00 in0.0 mm 0.00 in0.0 mm 0.00 in0.0 mm
05:30 PM 86.0°F30.0°C 50.1°F10.1°C 29% 2.2 mph ENE3.5 kmh ENE 10.7 mph17.2 kmh 29.83 in1010.2 mb 0.00 in0.0 mm 0.00 in0.0 mm 0.00 in0.0 mm
05:45 PM 84.7°F29.3°C 49.9°F9.9°C 30% 5.4 mph E8.7 kmh E 13.6 mph21.9 kmh 29.82 in1009.8 mb 0.00 in0.0 mm 0.00 in0.0 mm 0.00 in0.0 mm
06:00 PM 83.8°F28.8°C 50.9°F10.5°C 32% 3.1 mph E5.0 kmh E 11.4 mph18.3 kmh 29.83 in1010.2 mb 0.00 in0.0 mm 0.00 in0.0 mm 0.00 in0.0 mm
06:15 PM 83.5°F28.6°C 51.4°F10.8°C 33% 3.1 mph NE5.0 kmh NE 9.8 mph15.8 kmh 29.82 in1009.8 mb 0.00 in0.0 mm 0.00 in0.0 mm 0.00 in0.0 mm
06:30 PM 81.5°F27.5°C 49.7°F9.8°C 33% 3.1 mph E5.0 kmh E 12.1 mph19.5 kmh 29.82 in1009.8 mb 0.00 in0.0 mm 0.00 in0.0 mm 0.00 in0.0 mm
06:45 PM 79.3°F26.3°C 50.8°F10.4°C 37% 6.9 mph ESE11.1 kmh ESE 12.1 mph19.5 kmh 29.82 in1009.8 mb 0.00 in0.0 mm 0.00 in0.0 mm 0.00 in0.0 mm
07:00 PM 77.5°F25.3°C 51.3°F10.7°C 40% 4.5 mph ESE7.2 kmh ESE 15.2 mph24.5 kmh 29.83 in1010.2 mb 0.00 in0.0 mm 0.00 in0.0 mm 0.00 in0.0 mm
07:15 PM 76.1°F24.5°C 52.6°F11.4°C 44% 5.4 mph E8.7 kmh E 10.7 mph17.2 kmh 29.83 in1010.2 mb 0.00 in0.0 mm 0.00 in0.0 mm 0.00 in0.0 mm
07:30 PM 75.0°F23.9°C 52.9°F11.6°C 46% 6.0 mph E9.7 kmh E 12.1 mph19.5 kmh 29.83 in1010.2 mb 0.00 in0.0 mm 0.00 in0.0 mm 0.00 in0.0 mm
07:45 PM 74.3°F23.5°C 52.2°F11.2°C 46% 5.4 mph E8.7 kmh E 12.1 mph19.5 kmh 29.83 in1010.2 mb 0.00 in0.0 mm 0.00 in0.0 mm 0.00 in0.0 mm
08:00 PM 73.6°F23.1°C 52.1°F11.2°C 47% 6.0 mph E9.7 kmh E 10.7 mph17.2 kmh 29.84 in1010.5 mb 0.00 in0.0 mm 0.00 in0.0 mm 0.00 in0.0 mm
08:15 PM 72.9°F22.7°C 51.5°F10.8°C 47% 4.5 mph E7.2 kmh E 10.7 mph17.2 kmh 29.84 in1010.5 mb 0.00 in0.0 mm 0.00 in0.0 mm 0.00 in0.0 mm
08:30 PM 72.3°F22.4°C 51.6°F10.9°C 48% 6.0 mph E9.7 kmh E 9.2 mph14.8 kmh 29.85 in1010.8 mb 0.00 in0.0 mm 0.00 in0.0 mm 0.00 in0.0 mm
08:45 PM 71.8°F22.1°C 51.1°F10.6°C 48% 4.5 mph E7.2 kmh E 9.8 mph15.8 kmh 29.86 in1011.2 mb 0.00 in0.0 mm 0.00 in0.0 mm 0.00 in0.0 mm
09:00 PM 71.6°F22.0°C 50.3°F10.2°C 47% 5.4 mph ENE8.7 kmh ENE 10.7 mph17.2 kmh 29.86 in1011.2 mb 0.00 in0.0 mm 0.00 in0.0 mm 0.00 in0.0 mm
09:15 PM 71.1°F21.7°C 51.0°F10.6°C 49% 4.5 mph E7.2 kmh E 8.3 mph13.4 kmh 29.87 in1011.5 mb 0.00 in0.0 mm 0.00 in0.0 mm 0.00 in0.0 mm
09:30 PM 70.9°F21.6°C 50.8°F10.4°C 49% 5.4 mph ENE8.7 kmh ENE 8.3 mph13.4 kmh 29.87 in1011.5 mb 0.00 in0.0 mm 0.00 in0.0 mm 0.00 in0.0 mm
09:45 PM 70.5°F21.4°C 50.5°F10.3°C 49% 3.1 mph E5.0 kmh E 7.6 mph12.2 kmh 29.88 in1011.9 mb 0.00 in0.0 mm 0.00 in0.0 mm 0.00 in0.0 mm
10:00 PM 70.2°F21.2°C 50.1°F10.1°C 49% 3.1 mph E5.0 kmh E 8.3 mph13.4 kmh 29.88 in1011.9 mb 0.00 in0.0 mm 0.00 in0.0 mm 0.00 in0.0 mm
10:15 PM 69.8°F21.0°C 50.3°F10.2°C 50% 3.1 mph E5.0 kmh E 7.6 mph12.2 kmh 29.88 in1011.9 mb 0.00 in0.0 mm 0.00 in0.0 mm 0.00 in0.0 mm
10:30 PM 69.3°F20.7°C 50.4°F10.2°C 51% 3.1 mph E5.0 kmh E 8.3 mph13.4 kmh 29.89 in1012.2 mb 0.00 in0.0 mm 0.00 in0.0 mm 0.00 in0.0 mm
10:45 PM 68.9°F20.5°C 50.1°F10.1°C 51% 2.2 mph E3.5 kmh E 8.3 mph13.4 kmh 29.89 in1012.2 mb 0.00 in0.0 mm 0.00 in0.0 mm 0.00 in0.0 mm
11:00 PM 68.5°F20.3°C 50.2°F10.1°C 52% 0.7 mph E1.1 kmh E 7.6 mph12.2 kmh 29.88 in1011.9 mb 0.00 in0.0 mm 0.00 in0.0 mm 0.00 in0.0 mm
11:15 PM 68.2°F20.1°C 49.9°F9.9°C 52% 3.8 mph E6.1 kmh E 7.6 mph12.2 kmh 29.89 in1012.2 mb 0.00 in0.0 mm 0.00 in0.0 mm 0.00 in0.0 mm
11:30 PM 68.0°F20.0°C 50.3°F10.2°C 53% 3.1 mph NE5.0 kmh NE 7.6 mph12.2 kmh 29.88 in1011.9 mb 0.00 in0.0 mm 0.00 in0.0 mm 0.00 in0.0 mm
11:45 PM 67.8°F19.9°C 50.1°F10.1°C 53% 2.2 mph E3.5 kmh E 10.7 mph17.2 kmh 29.89 in1012.2 mb 0.00 in0.0 mm 0.00 in0.0 mm 0.00 in0.0 mm